Time;durP1;ratioP1;P1;durP2;ratioP2;P2;SDS_P1;SDS_P2;PMS_P1;PMS_P2;Temp;Humidity;BMP_temperature;BMP_pressure;BME280_temperature;BME280_humidity;BME280_pressure;Samples;Min_cycle;Max_cycle;Signal;HPM_P1;HPM_P2
2020/12/10 00:00:46;;;;;;;26.57;11.83;;;;;;;-3.22;62.83;101065.59;1709953;82;21208;-39
2020/12/10 00:03:14;;;;;;;23.77;12.28;;;;;;;-3.24;63.00;101071.01;1696018;84;22700;-34
2020/12/10 00:05:42;;;;;;;27.17;13.45;;;;;;;-3.26;63.20;101068.72;1686749;84;21228;-39
2020/12/10 00:08:11;;;;;;;23.83;12.95;;;;;;;-3.28;63.35;101069.91;1695448;84;21660;-39
2020/12/10 00:10:39;;;;;;;24.37;10.93;;;;;;;-3.28;63.48;101076.30;1695545;84;21169;-38
2020/12/10 00:13:07;;;;;;;28.62;12.73;;;;;;;-3.29;63.48;101069.41;1695821;84;21666;-38
2020/12/10 00:15:35;;;;;;;23.05;11.03;;;;;;;-3.31;63.61;101063.28;1695597;84;21640;-38
2020/12/10 00:18:03;;;;;;;26.45;12.23;;;;;;;-3.32;63.71;101058.95;1695720;84;21161;-34
2020/12/10 00:20:30;;;;;;;30.15;12.53;;;;;;;-3.33;63.86;101048.23;1695655;84;21169;-38
2020/12/10 00:22:59;;;;;;;28.23;12.00;;;;;;;-3.33;63.93;101046.95;1695730;84;21157;-35
2020/12/10 00:25:27;;;;;;;30.25;12.58;;;;;;;-3.34;63.91;101039.17;1695706;84;21766;-38
2020/12/10 00:27:55;;;;;;;31.75;13.15;;;;;;;-3.35;63.87;101037.02;1699520;84;21171;-38
2020/12/10 00:30:23;;;;;;;28.17;13.18;;;;;;;-3.37;63.94;101038.56;1710020;84;21144;-35
2020/12/10 00:32:53;;;;;;;27.25;13.00;;;;;;;-3.40;64.19;101024.30;1709696;84;21171;-38
2020/12/10 00:35:21;;;;;;;34.60;14.58;;;;;;;-3.38;64.12;101025.67;1706912;83;21185;-34
2020/12/10 00:37:49;;;;;;;33.23;12.60;;;;;;;-3.40;64.15;101019.58;1697104;84;21645;-34
2020/12/10 00:40:17;;;;;;;26.10;12.25;;;;;;;-3.39;64.26;101009.43;1686207;84;21122;-38
2020/12/10 00:42:45;;;;;;;37.73;13.62;;;;;;;-3.38;64.45;101021.44;1686314;85;21161;-34
2020/12/10 00:45:12;;;;;;;29.92;12.55;;;;;;;-3.37;64.57;101032.16;1686423;85;21165;-34
2020/12/10 00:47:41;;;;;;;28.20;13.70;;;;;;;-3.33;64.60;101029.03;1686194;84;21225;-34
2020/12/10 00:50:09;;;;;;;35.05;13.65;;;;;;;-3.31;64.71;101030.01;1686227;84;21189;-34
2020/12/10 00:52:38;;;;;;;30.23;13.70;;;;;;;-3.31;64.78;101018.50;1699261;84;21208;-35
2020/12/10 00:55:15;;;;;;;29.57;13.30;;;;;;;-3.31;64.84;101016.33;1717629;83;21219;-38
2020/12/10 00:57:46;;;;;;;37.05;14.50;;;;;;;-3.28;64.92;101012.71;1717353;83;21626;-35
2020/12/10 01:00:17;;;;;;;29.65;14.40;;;;;;;-3.27;65.05;101010.64;1717259;83;21199;-38
2020/12/10 01:02:45;;;;;;;25.65;11.48;;;;;;;-3.27;65.19;101019.20;1717458;83;21199;-34
2020/12/10 01:05:13;;;;;;;32.90;15.28;;;;;;;-3.26;65.38;101031.61;1717831;83;21171;-35
2020/12/10 01:07:41;;;;;;;30.72;14.78;;;;;;;-3.25;65.59;101034.29;1701461;83;21576;-34
2020/12/10 01:10:09;;;;;;;38.17;15.58;;;;;;;-3.23;65.69;101026.70;1686204;84;21242;-38
2020/12/10 01:12:37;;;;;;;36.88;14.75;;;;;;;-3.20;65.64;101017.93;1692221;84;21175;-34
2020/12/10 01:15:05;;;;;;;36.40;13.88;;;;;;;-3.17;65.59;101020.71;1639979;84;21172;-38
2020/12/10 01:17:33;;;;;;;35.10;15.45;;;;;;;-3.16;65.32;101023.76;1707402;83;21208;-39
2020/12/10 01:20:01;;;;;;;33.88;15.83;;;;;;;-3.17;65.35;101021.11;1689101;84;21173;-34
2020/12/10 01:22:29;;;;;;;31.93;14.78;;;;;;;-3.17;65.43;101018.16;1703830;82;21211;-34
2020/12/10 01:24:57;;;;;;;32.38;15.18;;;;;;;-3.15;65.26;101033.20;1716215;83;21354;-38
2020/12/10 01:27:25;;;;;;;26.23;13.38;;;;;;;-3.15;65.25;101038.72;1708097;83;21656;-34
2020/12/10 01:29:53;;;;;;;32.25;15.13;;;;;;;-3.15;65.18;101042.17;1717622;83;21511;-38
2020/12/10 01:32:23;;;;;;;29.42;13.80;;;;;;;-3.18;65.26;101038.53;1717560;83;21658;-38
2020/12/10 01:34:51;;;;;;;26.82;13.60;;;;;;;-3.14;65.35;101036.65;1688870;83;21138;-39
2020/12/10 01:37:20;;;;;;;30.02;15.03;;;;;;;-3.12;65.31;101044.95;1688916;85;21346;-39
2020/12/10 01:39:47;;;;;;;28.20;13.58;;;;;;;-3.10;65.38;101043.76;1720550;83;21149;-39
2020/12/10 01:42:15;;;;;;;35.20;15.00;;;;;;;-3.10;65.47;101048.48;1686738;85;21696;-37
2020/12/10 01:44:44;;;;;;;29.52;15.43;;;;;;;-3.11;65.52;101050.95;1686905;85;21243;-38
2020/12/10 01:47:12;;;;;;;29.60;13.38;;;;;;;-3.08;65.62;101053.70;1693897;84;21184;-36
2020/12/10 01:49:40;;;;;;;36.48;15.50;;;;;;;-3.07;65.67;101056.38;1678793;85;21123;-36
2020/12/10 01:52:07;;;;;;;27.05;13.08;;;;;;;-3.05;65.76;101048.80;1647404;84;21160;-38
2020/12/10 01:54:35;;;;;;;32.83;14.73;;;;;;;-3.03;65.78;101054.50;1713029;84;21185;-37
2020/12/10 01:57:03;;;;;;;30.57;15.20;;;;;;;-3.02;65.74;101052.82;1713183;84;21207;-35
2020/12/10 01:59:31;;;;;;;32.63;14.95;;;;;;;-3.03;65.73;101051.94;1688796;84;21194;-38
2020/12/10 02:01:59;;;;;;;41.00;15.03;;;;;;;-3.05;65.71;101042.39;1687012;85;21205;-38
2020/12/10 02:04:33;;;;;;;31.55;15.25;;;;;;;-3.06;65.70;101043.19;1697446;84;21293;-38
2020/12/10 02:07:01;;;;;;;31.75;14.45;;;;;;;-3.09;65.79;101034.89;1713219;82;21430;-39
2020/12/10 02:09:29;;;;;;;34.50;15.28;;;;;;;-3.06;65.79;101030.38;1713220;84;21203;-39
2020/12/10 02:11:58;;;;;;;32.53;13.90;;;;;;;-3.03;65.84;101035.69;1709994;83;21675;-35
2020/12/10 02:14:37;;;;;;;25.82;13.65;;;;;;;-3.02;65.84;101029.77;1686991;85;21233;-38
2020/12/10 02:17:06;;;;;;;32.30;13.98;;;;;;;-3.02;65.97;101030.66;1687039;84;21577;-34
2020/12/10 02:19:34;;;;;;;29.05;13.83;;;;;;;-3.01;65.97;101036.30;1684501;85;21167;-38
2020/12/10 02:22:02;;;;;;;32.13;15.95;;;;;;;-3.02;65.93;101034.50;1686508;84;21162;-34
2020/12/10 02:24:30;;;;;;;25.45;12.85;;;;;;;-3.05;66.04;101034.31;1684611;84;21228;-34
2020/12/10 02:26:58;;;;;;;23.80;12.55;;;;;;;-3.04;66.05;101028.41;1684733;85;21142;-38
2020/12/10 02:29:28;;;;;;;29.07;14.10;;;;;;;-3.04;66.14;101020.72;1711113;84;21217;-34
2020/12/10 02:31:56;;;;;;;22.90;12.47;;;;;;;-3.06;66.05;101017.19;1686700;84;21197;-34
2020/12/10 02:34:24;;;;;;;27.58;12.37;;;;;;;-3.05;66.07;101011.27;1686827;85;21375;-38
2020/12/10 02:36:52;;;;;;;31.80;14.25;;;;;;;-3.07;66.02;101003.89;1686977;85;21169;-38
2020/12/10 02:39:20;;;;;;;30.57;14.20;;;;;;;-3.08;65.93;101006.33;1684829;84;21617;-38
2020/12/10 02:41:48;;;;;;;27.32;13.22;;;;;;;-3.08;65.90;101007.61;1683634;84;21185;-34
2020/12/10 02:44:15;;;;;;;27.02;12.93;;;;;;;-3.08;65.90;101015.30;1695919;84;21161;-38
2020/12/10 02:46:44;;;;;;;35.25;16.48;;;;;;;-3.07;65.90;101019.66;1696733;84;21664;-34
2020/12/10 02:49:11;;;;;;;30.48;13.55;;;;;;;-3.10;65.87;101010.08;1691007;83;21356;-33
2020/12/10 02:51:43;;;;;;;29.60;13.68;;;;;;;-3.08;66.00;101003.77;1680849;84;21615;-34
2020/12/10 02:54:11;;;;;;;34.95;13.13;;;;;;;-3.08;66.03;101008.89;1710037;84;21187;-38
2020/12/10 02:56:39;;;;;;;26.57;12.93;;;;;;;-3.06;66.08;101011.18;1709992;84;21167;-35
2020/12/10 02:59:07;;;;;;;27.80;13.93;;;;;;;-3.05;66.06;101002.31;1709837;84;21346;-34
2020/12/10 03:01:35;;;;;;;28.07;12.98;;;;;;;-3.03;65.98;100998.16;1709962;84;21199;-35
2020/12/10 03:04:04;;;;;;;33.38;14.80;;;;;;;-3.00;66.04;101003.50;1693757;84;21674;-38
2020/12/10 03:06:32;;;;;;;29.95;13.53;;;;;;;-2.97;65.91;101001.52;1705196;84;21159;-38
2020/12/10 03:09:00;;;;;;;34.63;13.30;;;;;;;-2.95;65.86;100998.69;1709672;84;21195;-35
2020/12/10 03:11:27;;;;;;;32.93;13.80;;;;;;;-2.93;65.77;100998.38;1709827;84;21663;-38
2020/12/10 03:13:56;;;;;;;32.03;13.65;;;;;;;-2.93;65.71;101001.34;1709633;84;21245;-34
2020/12/10 03:16:24;;;;;;;29.82;13.30;;;;;;;-2.98;65.76;100996.80;1709796;84;21289;-38
2020/12/10 03:18:52;;;;;;;32.88;14.58;;;;;;;-2.97;65.75;100991.28;1704810;83;21152;-38
2020/12/10 03:21:20;;;;;;;35.05;12.45;;;;;;;-2.95;65.72;100989.73;1689474;84;21189;-38
2020/12/10 03:23:48;;;;;;;31.25;12.28;;;;;;;-2.95;65.63;100976.52;1697592;84;21370;-38
2020/12/10 03:26:16;;;;;;;27.87;12.95;;;;;;;-2.96;65.62;100980.23;1709745;84;21188;-34
2020/12/10 03:28:44;;;;;;;28.25;13.72;;;;;;;-2.99;65.60;100973.66;1709540;84;21158;-34
2020/12/10 03:31:11;;;;;;;28.60;13.70;;;;;;;-3.03;65.73;100975.52;1710039;84;21192;-36
2020/12/10 03:33:39;;;;;;;32.38;12.73;;;;;;;-3.07;65.99;100977.02;1704779;83;21169;-38
2020/12/10 03:36:07;;;;;;;29.82;12.95;;;;;;;-3.13;66.12;100976.98;1695883;84;21350;-34
2020/12/10 03:38:35;;;;;;;33.90;13.88;;;;;;;-3.14;66.27;100986.73;1696656;84;21231;-38
2020/12/10 03:41:05;;;;;;;30.23;14.20;;;;;;;-3.17;66.43;100982.70;1686168;84;21197;-37
2020/12/10 03:43:32;;;;;;;25.40;12.90;;;;;;;-3.18;66.62;100970.70;1686419;84;21173;-37
2020/12/10 03:46:00;;;;;;;21.75;11.73;;;;;;;-3.17;66.78;100981.03;1686603;84;21181;-34
2020/12/10 03:48:28;;;;;;;29.42;12.53;;;;;;;-3.15;66.84;100978.56;1711879;83;21163;-38
2020/12/10 03:50:58;;;;;;;25.65;11.80;;;;;;;-3.15;66.86;100976.00;1688952;84;21189;-34
2020/12/10 03:53:25;;;;;;;30.95;14.35;;;;;;;-3.15;66.90;100974.33;1688906;83;21196;-34
2020/12/10 03:55:54;;;;;;;27.45;14.20;;;;;;;-3.12;66.96;100970.70;1689092;84;21169;-38
2020/12/10 03:58:22;;;;;;;33.45;13.20;;;;;;;-3.12;67.07;100961.74;1688939;83;21223;-34
2020/12/10 04:00:49;;;;;;;27.93;12.70;;;;;;;-3.10;66.96;100961.84;1689688;83;21177;-38
2020/12/10 04:03:17;;;;;;;29.77;13.72;;;;;;;-3.11;66.96;100959.67;1692407;83;21161;-38
2020/12/10 04:05:45;;;;;;;34.67;13.70;;;;;;;-3.10;67.09;100961.84;1686222;84;21479;-39
2020/12/10 04:08:13;;;;;;;29.67;15.05;;;;;;;-3.08;67.06;100958.57;1686093;84;21632;-38
2020/12/10 04:10:41;;;;;;;32.73;13.00;;;;;;;-3.06;67.19;100957.02;1686590;84;21182;-38
2020/12/10 04:13:09;;;;;;;31.95;12.25;;;;;;;-3.02;67.05;100957.69;1686161;84;21161;-34
2020/12/10 04:15:37;;;;;;;32.83;12.98;;;;;;;-2.99;66.96;100958.30;1683014;84;21185;-39
2020/12/10 04:18:05;;;;;;;28.60;12.33;;;;;;;-3.00;66.71;100958.69;1684300;84;21743;-38
2020/12/10 04:20:33;;;;;;;32.75;13.30;;;;;;;-3.03;66.76;100960.16;1686159;84;21142;-34
2020/12/10 04:23:01;;;;;;;29.15;11.88;;;;;;;-3.03;66.82;100961.04;1686191;85;21300;-38
2020/12/10 04:25:28;;;;;;;32.20;12.73;;;;;;;-3.04;66.89;100959.27;1686223;84;21594;-37
2020/12/10 04:27:56;;;;;;;28.42;13.95;;;;;;;-3.05;67.01;100960.06;1686337;84;21241;-38
2020/12/10 04:30:24;;;;;;;38.38;13.72;;;;;;;-3.05;67.10;100956.22;1699252;84;21124;-38
2020/12/10 04:32:52;;;;;;;34.65;13.95;;;;;;;-3.06;67.11;100954.45;1717559;83;21563;-38
2020/12/10 04:35:20;;;;;;;25.52;13.40;;;;;;;-3.08;67.26;100963.69;1717746;83;21211;-38
2020/12/10 04:37:47;;;;;;;25.85;14.05;;;;;;;-3.11;67.46;100966.47;1708683;83;21200;-34
2020/12/10 04:40:15;;;;;;;29.60;14.35;;;;;;;-3.14;67.68;100959.85;1700878;83;21184;-38
2020/12/10 04:42:46;;;;;;;34.58;14.80;;;;;;;-3.15;67.82;100958.97;1686575;84;21203;-35
2020/12/10 04:45:12;;;;;;;35.28;13.22;;;;;;;-3.11;67.97;100961.34;1686449;84;21173;-34
2020/12/10 04:47:41;;;;;;;29.37;12.80;;;;;;;-3.10;68.03;100954.16;1714845;83;21195;-38
2020/12/10 04:50:18;;;;;;;32.10;14.28;;;;;;;-3.11;68.13;100951.99;1717156;83;21176;-36
2020/12/10 04:52:38;;;;;;;23.85;13.45;;;;;;;-3.09;68.32;100948.24;1716601;83;21127;-38
2020/12/10 04:55:06;;;;;;;25.92;13.22;;;;;;;-3.05;68.32;100956.22;1699931;83;21185;-38
2020/12/10 04:57:34;;;;;;;28.35;13.43;;;;;;;-3.03;68.31;100953.76;1689285;83;21176;-38
2020/12/10 05:00:04;;;;;;;25.43;12.98;;;;;;;-3.05;68.44;100957.91;1717739;83;21155;-38
2020/12/10 05:02:32;;;;;;;31.50;13.75;;;;;;;-3.08;68.59;100963.69;1717607;83;21651;-34
2020/12/10 05:05:00;;;;;;;27.52;12.45;;;;;;;-3.09;68.78;100962.32;1706655;83;21159;-34
2020/12/10 05:07:38;;;;;;;31.77;14.93;;;;;;;-3.10;68.96;100952.48;1713924;83;21563;-36
2020/12/10 05:10:08;;;;;;;34.18;15.32;;;;;;;-3.09;69.18;100950.80;1698187;84;21212;-38
2020/12/10 05:12:36;;;;;;;33.53;13.55;;;;;;;-3.11;69.37;100951.99;1685539;84;21208;-33
2020/12/10 05:15:04;;;;;;;28.10;12.80;;;;;;;-3.11;69.53;100949.83;1681534;84;21269;-33
2020/12/10 05:17:31;;;;;;;29.80;14.45;;;;;;;-3.10;69.71;100954.16;1686366;85;21185;-37
2020/12/10 05:20:00;;;;;;;31.62;14.35;;;;;;;-3.10;69.74;100956.72;1686209;84;21233;-33
2020/12/10 05:22:28;;;;;;;32.20;14.40;;;;;;;-3.10;69.87;100950.31;1696877;84;21164;-33
2020/12/10 05:25:03;;;;;;;28.45;12.13;;;;;;;-3.11;69.98;100959.67;1690368;84;22001;-37
2020/12/10 05:27:32;;;;;;;29.12;13.93;;;;;;;-3.09;70.18;100961.05;1703253;83;21167;-37
2020/12/10 05:30:00;;;;;;;40.43;15.35;;;;;;;-3.09;70.24;100955.52;1679003;83;21213;-34
2020/12/10 05:32:40;;;;;;;33.83;13.72;;;;;;;-3.05;70.39;100955.34;1702402;82;21241;-33
2020/12/10 05:35:23;;;;;;;34.63;16.40;;;;;;;-3.01;70.43;100961.16;1700755;82;21152;-37
2020/12/10 05:37:54;;;;;;;33.83;14.20;;;;;;;-3.02;70.54;100958.08;1685892;84;21525;-35
2020/12/10 05:40:22;;;;;;;32.10;14.28;;;;;;;-3.00;70.61;100974.05;1701443;83;21186;-39
2020/12/10 05:42:51;;;;;;;33.53;15.28;;;;;;;-2.99;70.80;100972.37;1713488;82;21589;-38
2020/12/10 05:45:22;;;;;;;31.48;14.53;;;;;;;-3.01;70.97;100973.97;1712792;82;21139;-38
2020/12/10 05:47:57;;;;;;;33.78;14.70;;;;;;;-3.01;71.18;100973.57;1713430;82;21198;-39
2020/12/10 05:50:28;;;;;;;31.40;13.83;;;;;;;-2.99;71.33;100971.98;1722148;82;21433;-34
2020/12/10 05:53:12;;;;;;;36.35;13.22;;;;;;;-2.97;71.63;100964.39;1704770;82;21298;-35
2020/12/10 05:55:48;;;;;;;35.50;15.43;;;;;;;-2.95;71.65;100966.28;1718042;83;21205;-35
2020/12/10 05:58:20;;;;;;;41.92;15.65;;;;;;;-2.92;71.86;100959.17;1706021;83;21236;-33
2020/12/10 06:00:48;;;;;;;32.93;14.03;;;;;;;-2.94;72.04;100964.61;1711388;83;21209;-34
2020/12/10 06:03:15;;;;;;;43.50;15.85;;;;;;;-2.95;72.24;100965.00;1702592;83;21615;-34
2020/12/10 06:05:44;;;;;;;37.85;15.00;;;;;;;-2.96;72.55;100955.55;1706122;83;21746;-34
2020/12/10 06:08:13;;;;;;;41.42;14.30;;;;;;;-2.92;72.73;100959.17;1707778;83;21147;-35
2020/12/10 06:10:42;;;;;;;37.08;13.20;;;;;;;-2.93;72.94;100961.25;1707652;82;21706;-39
2020/12/10 06:13:11;;;;;;;41.00;14.35;;;;;;;-2.97;73.17;100958.87;1700878;82;21187;-35
2020/12/10 06:15:39;;;;;;;42.83;15.53;;;;;;;-2.98;73.47;100956.22;1706162;83;21167;-38
2020/12/10 06:18:13;;;;;;;39.03;14.38;;;;;;;-2.97;73.75;100951.19;1705722;82;21159;-35
2020/12/10 06:20:46;;;;;;;42.78;14.83;;;;;;;-2.98;74.01;100943.02;1709933;82;21163;-35
2020/12/10 06:23:31;;;;;;;32.50;12.43;;;;;;;-2.99;74.27;100954.06;1704737;82;21733;-34
2020/12/10 06:26:25;;;;;;;40.80;14.53;;;;;;;-2.99;74.54;100947.66;1708110;83;21182;-36
2020/12/10 06:29:32;;;;;;;41.55;14.58;;;;;;;-2.95;74.75;100941.07;1731253;79;22720;-38
2020/12/10 06:32:11;;;;;;;38.95;14.60;;;;;;;-2.99;74.92;100942.93;1703386;83;21639;-36
2020/12/10 06:34:53;;;;;;;35.75;14.80;;;;;;;-3.00;75.10;100939.89;1702730;83;21190;-35
2020/12/10 06:37:27;;;;;;;43.42;15.93;;;;;;;-2.97;75.20;100935.83;1702410;83;21200;-38
2020/12/10 06:40:02;;;;;;;27.70;12.90;;;;;;;-2.92;75.13;100935.24;1707317;82;21159;-34
2020/12/10 06:42:50;;;;;;;37.25;13.68;;;;;;;-2.88;75.10;100930.42;1674050;84;21186;-33
2020/12/10 06:45:37;;;;;;;38.45;14.58;;;;;;;-2.84;75.08;100930.20;1666920;83;21203;-33
2020/12/10 06:48:18;;;;;;;37.42;15.40;;;;;;;-2.82;75.16;100919.69;1668506;83;21170;-34
2020/12/10 06:50:46;;;;;;;37.15;13.25;;;;;;;-2.80;75.21;100912.57;1641140;85;21775;-37
2020/12/10 06:53:23;;;;;;;36.55;12.98;;;;;;;-2.79;75.27;100904.09;1665669;85;21718;-35
2020/12/10 06:56:02;;;;;;;31.48;12.65;;;;;;;-2.75;75.30;100903.50;1670125;83;21151;-38
2020/12/10 06:58:42;;;;;;;31.50;14.13;;;;;;;-2.72;75.31;100894.75;1677845;84;21216;-38
2020/12/10 07:07:21;;;;;;;37.70;14.80;;;;;;;-2.65;75.41;100898.57;1728513;81;21357;-34
2020/12/10 07:10:01;;;;;;;33.53;13.93;;;;;;;-2.63;75.47;100893.53;1673338;84;21182;-37
2020/12/10 07:12:33;;;;;;;34.48;14.28;;;;;;;-2.64;75.57;100887.53;1700670;83;21622;-38
2020/12/10 07:15:25;;;;;;;44.25;17.12;;;;;;;-2.63;75.72;100890.97;1680565;83;21183;-34
2020/12/10 07:17:54;;;;;;;40.15;14.90;;;;;;;-2.62;75.82;100886.33;1699043;83;21166;-38
2020/12/10 07:20:23;;;;;;;31.05;13.40;;;;;;;-2.59;75.92;100887.81;1677679;84;21181;-38
2020/12/10 07:22:52;;;;;;;32.95;13.68;;;;;;;-2.60;76.11;100883.09;1693539;83;21585;-38
2020/12/10 07:25:24;;;;;;;37.00;15.50;;;;;;;-2.59;76.24;100881.41;1672400;84;21245;-42
2020/12/10 07:27:55;;;;;;;32.85;14.68;;;;;;;-2.58;76.39;100882.78;1700538;83;21184;-38
2020/12/10 07:30:30;;;;;;;40.67;15.23;;;;;;;-2.58;76.50;100894.70;1675267;83;21180;-37
2020/12/10 07:55:30;;;;;;;39.70;17.87;;;;;;;-1.75;75.95;100896.31;1766916;79;23452;-35
2020/12/10 07:58:34;;;;;;;41.50;17.67;;;;;;;-1.84;75.93;100895.80;1727398;81;21182;-35
2020/12/10 08:01:06;;;;;;;40.10;16.32;;;;;;;-1.91;76.13;100895.84;1725926;81;21339;-37
2020/12/10 08:03:47;;;;;;;;;;;;;;;-1.97;76.37;100892.91;1727421;81;21204;-37
2020/12/10 08:06:16;;;;;;;44.58;17.17;;;;;;;-1.99;76.44;100893.59;1687415;84;20244;-39
2020/12/10 08:08:49;;;;;;;29.98;13.43;;;;;;;-2.06;76.68;100888.91;1684428;83;21146;-39
2020/12/10 08:11:19;;;;;;;40.43;15.25;;;;;;;-2.07;76.90;100884.57;1707713;82;21215;-36
2020/12/10 08:14:08;;;;;;;42.83;18.07;;;;;;;-2.07;77.04;100879.05;1724347;81;21733;-39
2020/12/10 08:16:45;;;;;;;36.15;16.75;;;;;;;-2.07;77.25;100875.59;1735011;78;21287;-39
2020/12/10 08:19:21;;;;;;;45.45;17.95;;;;;;;-2.10;77.52;100885.66;1723083;81;21426;-39
2020/12/10 08:21:50;;;;;;;48.35;18.75;;;;;;;-2.09;77.71;100890.87;1697104;83;21152;-35
2020/12/10 08:24:43;;;;;;;41.85;16.82;;;;;;;-2.07;77.90;100888.02;1696515;83;21222;-35
2020/12/10 08:27:15;;;;;;;32.55;15.53;;;;;;;-2.07;78.01;100883.29;1674898;83;21201;-34
2020/12/10 08:30:10;;;;;;;42.23;16.57;;;;;;;-2.05;78.12;100873.59;1802918;78;22256;-35
2020/12/10 08:32:54;;;;;;;37.80;15.20;;;;;;;-2.11;78.22;100880.92;1769267;79;21148;-36
2020/12/10 08:35:23;;;;;;;49.63;18.62;;;;;;;-2.10;78.34;100881.81;1767341;79;21681;-35
2020/12/10 08:37:52;;;;;;;43.05;18.87;;;;;;;-2.10;78.36;100876.28;1774474;79;21630;-34
2020/12/10 08:40:27;;;;;;;36.28;17.35;;;;;;;-2.07;78.28;100878.16;1743560;80;21152;-39
2020/12/10 08:42:54;;;;;;;56.77;19.95;;;;;;;-2.05;78.25;100869.75;1766826;79;21499;-35
2020/12/10 08:45:31;;;;;;;42.80;18.42;;;;;;;-2.03;78.08;100871.11;1768321;79;21623;-35
2020/12/10 08:48:01;;;;;;;32.93;16.55;;;;;;;-2.02;78.12;100862.26;1773211;79;21119;-35
2020/12/10 08:50:30;;;;;;;43.33;18.82;;;;;;;-2.00;78.02;100862.34;1773591;79;21196;-36
2020/12/10 08:53:04;;;;;;;40.58;17.98;;;;;;;-1.99;78.01;100855.13;1738750;79;21162;-38
2020/12/10 08:55:50;;;;;;;43.05;19.17;;;;;;;-1.94;78.06;100851.16;1768787;79;21614;-34
2020/12/10 08:58:24;;;;;;;35.48;17.02;;;;;;;-1.89;77.91;100842.94;1706711;81;21265;-34
2020/12/10 09:00:54;;;;;;;43.70;18.12;;;;;;;-1.87;77.83;100839.17;1710089;83;21147;-38
2020/12/10 09:03:23;;;;;;;48.23;19.02;;;;;;;-1.84;77.71;100839.77;1711537;83;21784;-35
2020/12/10 09:05:52;;;;;;;54.05;19.82;;;;;;;-1.84;77.70;100834.63;1711151;83;21171;-35
2020/12/10 09:08:21;;;;;;;51.37;20.43;;;;;;;-1.83;77.73;100823.17;1713854;83;21230;-39
2020/12/10 09:10:53;;;;;;;49.27;18.42;;;;;;;-1.79;77.74;100819.11;1734908;81;21281;-34
2020/12/10 09:17:55;;;;;;;43.92;20.50;;;;;;;-1.75;77.90;100809.48;1794156;78;24747;-35
2020/12/10 09:20:26;;;;;;;53.87;19.82;;;;;;;-1.79;78.10;100808.85;1768926;79;21185;-38
2020/12/10 09:22:54;;;;;;;46.28;17.17;;;;;;;-1.77;78.18;100811.09;1768633;79;21625;-34
2020/12/10 09:25:24;;;;;;;41.90;17.92;;;;;;;-1.75;78.26;100810.37;1764308;79;21692;-39
2020/12/10 09:27:59;;;;;;;45.20;17.60;;;;;;;-1.71;78.34;100812.32;1765213;79;21684;-39
2020/12/10 09:30:37;;;;;;;41.30;17.20;;;;;;;-1.69;78.41;100806.87;1770780;79;21612;-35
2020/12/10 09:33:07;;;;;;;58.23;21.10;;;;;;;-1.66;78.58;100810.91;1765866;79;21906;-39
2020/12/10 09:35:36;;;;;;;43.90;17.25;;;;;;;-1.61;78.59;100809.89;1767597;80;21351;-39
2020/12/10 09:38:05;;;;;;;36.83;15.93;;;;;;;-1.61;78.63;100810.77;1765435;79;21186;-39
2020/12/10 09:40:33;;;;;;;32.95;16.15;;;;;;;-1.62;78.76;100813.27;1765545;79;21419;-39
2020/12/10 09:43:02;;;;;;;41.85;17.77;;;;;;;-1.59;78.98;100812.53;1770619;79;21303;-38
2020/12/10 09:45:30;;;;;;;39.38;16.87;;;;;;;-1.59;79.06;100816.39;1773820;79;21684;-34
2020/12/10 09:47:58;;;;;;;45.20;19.87;;;;;;;-1.58;79.32;100824.56;1770748;80;21586;-37
2020/12/10 09:50:32;;;;;;;57.78;22.45;;;;;;;-1.52;79.41;100815.52;1772480;79;21179;-38
2020/12/10 09:53:17;;;;;;;46.77;18.40;;;;;;;-1.48;79.47;100822.61;1767774;80;21316;-38
2020/12/10 09:56:09;;;;;;;43.23;17.67;;;;;;;-1.45;79.50;100811.62;1736961;81;21263;-33
2020/12/10 09:58:14;;;;;;;54.65;22.22;;;;;;;-1.43;79.56;100822.88;1708454;81;21925;-39
2020/12/10 10:00:48;;;;;;;54.88;20.68;;;;;;;-1.42;79.64;100825.52;1705684;83;21708;-35
2020/12/10 10:03:12;;;;;;;46.37;18.82;;;;;;;-1.37;79.67;100815.52;1706429;83;21142;-35
2020/12/10 10:05:42;;;;;;;40.58;17.20;;;;;;;-1.38;79.67;100814.64;1701962;83;21365;-38
2020/12/10 10:08:10;;;;;;;45.78;17.23;;;;;;;-1.40;79.79;100814.05;1703890;83;21188;-35
2020/12/10 10:10:38;;;;;;;41.42;17.40;;;;;;;-1.42;79.89;100814.38;1707164;83;21199;-38
2020/12/10 10:13:11;;;;;;;40.83;16.87;;;;;;;-1.42;80.11;100813.09;1707369;83;21206;-35
2020/12/10 10:15:44;;;;;;;44.90;16.77;;;;;;;-1.41;80.18;100814.85;1707741;83;21236;-39
2020/12/10 10:18:22;;;;;;;42.90;17.80;;;;;;;-1.39;80.36;100814.56;1729206;81;21701;-37
2020/12/10 10:20:52;;;;;;;37.93;16.93;;;;;;;-1.40;80.53;100816.61;1722957;81;21214;-34
2020/12/10 10:23:20;;;;;;;39.55;16.40;;;;;;;-1.42;80.77;100810.12;1694076;81;22000;-39
2020/12/10 10:25:50;;;;;;;49.00;21.00;;;;;;;-1.42;81.04;100804.98;1708365;82;21825;-40
2020/12/10 10:28:19;;;;;;;44.95;18.62;;;;;;;-1.40;81.33;100807.23;1714019;81;21352;-37
2020/12/10 10:35:12;;;;;;;44.13;17.95;;;;;;;-1.39;81.67;100801.32;1707537;83;21553;-39
2020/12/10 10:38:16;;;;;;;43.90;18.17;;;;;;;-1.41;81.84;100805.47;1739238;81;21193;-35
2020/12/10 10:40:50;;;;;;;40.10;17.32;;;;;;;-1.41;82.15;100799.05;1734013;81;21337;-38
2020/12/10 10:43:17;;;;;;;41.92;17.60;;;;;;;-1.36;82.18;100796.34;1736209;81;21175;-38
2020/12/10 10:45:46;;;;;;;41.13;16.45;;;;;;;-1.34;82.09;100794.73;1725872;81;21653;-35
2020/12/10 10:48:14;;;;;;;44.83;18.25;;;;;;;-1.34;82.08;100787.03;1728538;81;21175;-38
2020/12/10 10:50:41;;;;;;;38.33;16.70;;;;;;;-1.32;82.15;100793.95;1736260;81;21347;-38
2020/12/10 10:53:10;;;;;;;38.80;15.68;;;;;;;-1.33;82.24;100796.92;1731703;81;21175;-38
2020/12/10 10:55:38;;;;;;;43.78;16.23;;;;;;;-1.33;82.34;100795.64;1729931;81;21876;-34
2020/12/10 10:58:13;;;;;;;49.58;20.25;;;;;;;-1.31;82.47;100794.44;1732194;81;21218;-39
2020/12/10 11:01:04;;;;;;;44.95;19.25;;;;;;;-1.29;82.53;100790.26;1728401;81;21188;-34
2020/12/10 11:03:41;;;;;;;45.17;18.15;;;;;;;-1.26;82.65;100792.61;1733394;81;21481;-38
2020/12/10 11:06:17;;;;;;;45.95;17.25;;;;;;;-1.20;82.69;100783.08;1737724;81;21581;-39
2020/12/10 11:08:51;;;;;;;37.40;15.83;;;;;;;-1.18;82.73;100772.47;1732131;81;21638;-38
2020/12/10 11:11:21;;;;;;;63.87;19.82;;;;;;;-1.16;82.87;100778.56;1731355;81;21265;-37
2020/12/10 11:14:02;;;;;;;55.78;21.85;;;;;;;-1.10;83.09;100784.06;1728777;81;21178;-36
2020/12/10 11:16:56;;;;;;;43.52;18.57;;;;;;;-1.04;83.08;100773.20;1726939;81;21148;-39
2020/12/10 11:19:26;;;;;;;45.30;19.30;;;;;;;-0.99;83.06;100776.51;1703244;83;21321;-34
2020/12/10 11:22:00;;;;;;;53.52;20.10;;;;;;;-0.98;83.03;100764.17;1730393;82;21170;-34
2020/12/10 11:24:29;;;;;;;47.78;20.08;;;;;;;-0.95;83.04;100764.73;1732696;82;21167;-36
2020/12/10 11:27:01;;;;;;;47.40;19.12;;;;;;;-0.90;83.22;100762.88;1688775;82;21159;-39
2020/12/10 11:29:31;;;;;;;44.93;19.00;;;;;;;-0.85;83.16;100763.13;1709172;82;21186;-38
2020/12/10 11:31:59;;;;;;;49.53;19.30;;;;;;;-0.83;83.08;100767.53;1712151;82;21500;-39
2020/12/10 11:34:30;;;;;;;44.18;17.27;;;;;;;-0.84;83.11;100754.62;1711860;82;21339;-39
2020/12/10 11:37:07;;;;;;;39.40;15.55;;;;;;;-0.83;83.16;100758.95;1713291;82;21713;-33
2020/12/10 11:39:41;;;;;;;48.40;19.73;;;;;;;-0.83;83.20;100765.38;1701904;82;21215;-33
2020/12/10 11:42:09;;;;;;;47.78;18.62;;;;;;;-0.83;83.34;100772.67;1702182;83;21186;-38
2020/12/10 11:44:42;;;;;;;39.38;15.88;;;;;;;-0.82;83.29;100776.13;1705846;83;21233;-34
2020/12/10 11:47:12;;;;;;;37.08;15.88;;;;;;;-0.83;83.38;100771.39;1730470;82;21214;-34
2020/12/10 11:49:46;;;;;;;38.55;16.30;;;;;;;-0.83;83.42;100757.66;1700523;83;21185;-39
2020/12/10 11:52:25;;;;;;;37.15;15.18;;;;;;;-0.84;83.48;100753.33;1671781;82;21602;-38
2020/12/10 11:54:56;;;;;;;40.78;18.40;;;;;;;-0.86;83.61;100755.83;1732692;82;21353;-39
2020/12/10 11:57:31;;;;;;;48.83;19.98;;;;;;;-0.86;83.74;100755.83;1729593;82;22080;-38
2020/12/10 11:59:59;;;;;;;40.85;17.87;;;;;;;-0.85;83.86;100760.56;1708353;82;21243;-38
2020/12/10 12:02:35;;;;;;;42.23;18.23;;;;;;;-0.82;83.90;100763.28;1714830;82;21603;-34
2020/12/10 12:05:14;;;;;;;39.42;16.35;;;;;;;-0.82;83.92;100765.84;1715222;82;21247;-35